sensor_id;sensor_type;location;lat;lon;timestamp;temperature;humidity
12303;DHT22;6214;48.012;7.862;2023-06-10T00:02:25;23.80;95.10
12303;DHT22;6214;48.012;7.862;2023-06-10T00:04:52;23.60;95.80
12303;DHT22;6214;48.012;7.862;2023-06-10T00:07:19;23.60;96.30
12303;DHT22;6214;48.012;7.862;2023-06-10T00:09:46;23.40;97.30
12303;DHT22;6214;48.012;7.862;2023-06-10T00:12:14;23.30;98.30
12303;DHT22;6214;48.012;7.862;2023-06-10T00:14:41;23.10;99.90
12303;DHT22;6214;48.012;7.862;2023-06-10T00:17:08;23.00;99.90
12303;DHT22;6214;48.012;7.862;2023-06-10T00:19:38;22.80;99.90
12303;DHT22;6214;48.012;7.862;2023-06-10T00:22:08;22.80;99.90
12303;DHT22;6214;48.012;7.862;2023-06-10T00:24:38;22.70;99.90
12303;DHT22;6214;48.012;7.862;2023-06-10T00:27:06;22.60;99.90
12303;DHT22;6214;48.012;7.862;2023-06-10T00:29:34;22.50;99.90
12303;DHT22;6214;48.012;7.862;2023-06-10T00:32:01;22.40;99.90
12303;DHT22;6214;48.012;7.862;2023-06-10T00:34:29;22.20;99.90
12303;DHT22;6214;48.012;7.862;2023-06-10T00:36:55;22.00;99.90
12303;DHT22;6214;48.012;7.862;2023-06-10T00:39:22;21.90;99.90
12303;DHT22;6214;48.012;7.862;2023-06-10T00:41:49;21.90;99.90
12303;DHT22;6214;48.012;7.862;2023-06-10T00:44:16;21.70;99.90
12303;DHT22;6214;48.012;7.862;2023-06-10T00:46:43;21.60;99.90
12303;DHT22;6214;48.012;7.862;2023-06-10T00:49:11;21.50;99.90
12303;DHT22;6214;48.012;7.862;2023-06-10T00:51:38;21.60;99.90
12303;DHT22;6214;48.012;7.862;2023-06-10T00:54:07;21.40;99.90
12303;DHT22;6214;48.012;7.862;2023-06-10T00:56:35;21.30;99.90
12303;DHT22;6214;48.012;7.862;2023-06-10T00:59:02;21.20;99.90
12303;DHT22;6214;48.012;7.862;2023-06-10T01:01:29;21.10;99.90
12303;DHT22;6214;48.012;7.862;2023-06-10T01:03:56;21.00;99.90
12303;DHT22;6214;48.012;7.862;2023-06-10T01:09:15;20.90;99.90
12303;DHT22;6214;48.012;7.862;2023-06-10T01:11:48;20.90;99.90
12303;DHT22;6214;48.012;7.862;2023-06-10T01:14:17;20.80;99.90
12303;DHT22;6214;48.012;7.862;2023-06-10T01:16:44;20.70;99.90
12303;DHT22;6214;48.012;7.862;2023-06-10T01:19:12;20.70;99.90
12303;DHT22;6214;48.012;7.862;2023-06-10T01:21:40;20.70;99.90
12303;DHT22;6214;48.012;7.862;2023-06-10T01:24:08;20.80;99.90
12303;DHT22;6214;48.012;7.862;2023-06-10T01:26:35;20.70;99.90
12303;DHT22;6214;48.012;7.862;2023-06-10T01:29:08;20.50;99.90
12303;DHT22;6214;48.012;7.862;2023-06-10T01:31:51;20.40;99.90
12303;DHT22;6214;48.012;7.862;2023-06-10T01:34:23;20.30;99.90
12303;DHT22;6214;48.012;7.862;2023-06-10T01:36:52;20.40;99.90
12303;DHT22;6214;48.012;7.862;2023-06-10T01:39:22;20.50;99.90
12303;DHT22;6214;48.012;7.862;2023-06-10T01:41:51;20.50;99.90
12303;DHT22;6214;48.012;7.862;2023-06-10T01:44:21;20.60;99.90
12303;DHT22;6214;48.012;7.862;2023-06-10T01:46:48;20.50;99.90
12303;DHT22;6214;48.012;7.862;2023-06-10T01:49:16;20.50;99.90
12303;DHT22;6214;48.012;7.862;2023-06-10T01:51:43;20.40;99.90
12303;DHT22;6214;48.012;7.862;2023-06-10T01:54:10;20.30;99.90
12303;DHT22;6214;48.012;7.862;2023-06-10T01:56:37;20.30;99.90
12303;DHT22;6214;48.012;7.862;2023-06-10T01:59:04;20.30;99.90
12303;DHT22;6214;48.012;7.862;2023-06-10T02:01:30;20.20;99.90
12303;DHT22;6214;48.012;7.862;2023-06-10T02:03:58;20.10;99.90
12303;DHT22;6214;48.012;7.862;2023-06-10T02:06:25;20.00;99.90
12303;DHT22;6214;48.012;7.862;2023-06-10T02:08:52;20.00;99.90
12303;DHT22;6214;48.012;7.862;2023-06-10T02:11:18;20.00;99.90
12303;DHT22;6214;48.012;7.862;2023-06-10T02:13:45;20.00;99.90
12303;DHT22;6214;48.012;7.862;2023-06-10T02:16:12;19.90;99.90
12303;DHT22;6214;48.012;7.862;2023-06-10T02:18:41;19.90;99.90
12303;DHT22;6214;48.012;7.862;2023-06-10T02:21:10;19.80;99.90
12303;DHT22;6214;48.012;7.862;2023-06-10T02:23:37;19.70;99.90
12303;DHT22;6214;48.012;7.862;2023-06-10T02:26:04;19.70;99.90
12303;DHT22;6214;48.012;7.862;2023-06-10T02:28:31;19.60;99.90
12303;DHT22;6214;48.012;7.862;2023-06-10T02:30:58;19.50;99.90
12303;DHT22;6214;48.012;7.862;2023-06-10T02:33:26;19.50;99.90
12303;DHT22;6214;48.012;7.862;2023-06-10T02:35:54;19.50;99.90
12303;DHT22;6214;48.012;7.862;2023-06-10T02:38:21;19.40;99.90
12303;DHT22;6214;48.012;7.862;2023-06-10T02:40:48;19.40;99.90
12303;DHT22;6214;48.012;7.862;2023-06-10T02:43:15;19.40;99.90
12303;DHT22;6214;48.012;7.862;2023-06-10T02:45:42;19.10;99.90
12303;DHT22;6214;48.012;7.862;2023-06-10T02:48:09;19.20;99.90
12303;DHT22;6214;48.012;7.862;2023-06-10T02:50:36;19.20;99.90
12303;DHT22;6214;48.012;7.862;2023-06-10T02:53:05;19.30;99.90
12303;DHT22;6214;48.012;7.862;2023-06-10T02:55:32;19.20;99.90
12303;DHT22;6214;48.012;7.862;2023-06-10T02:57:59;19.20;99.90
12303;DHT22;6214;48.012;7.862;2023-06-10T03:00:27;19.10;99.90
12303;DHT22;6214;48.012;7.862;2023-06-10T03:02:55;19.10;99.90
12303;DHT22;6214;48.012;7.862;2023-06-10T03:05:24;19.20;99.90
12303;DHT22;6214;48.012;7.862;2023-06-10T03:07:51;19.00;99.90
12303;DHT22;6214;48.012;7.862;2023-06-10T03:10:18;19.00;99.90
12303;DHT22;6214;48.012;7.862;2023-06-10T03:12:45;19.00;99.90
12303;DHT22;6214;48.012;7.862;2023-06-10T03:15:12;18.90;99.90
12303;DHT22;6214;48.012;7.862;2023-06-10T03:17:39;18.80;99.90
12303;DHT22;6214;48.012;7.862;2023-06-10T03:20:06;18.70;99.90
12303;DHT22;6214;48.012;7.862;2023-06-10T03:22:36;18.70;99.90
12303;DHT22;6214;48.012;7.862;2023-06-10T03:25:05;18.60;99.90
12303;DHT22;6214;48.012;7.862;2023-06-10T03:27:33;18.70;99.90
12303;DHT22;6214;48.012;7.862;2023-06-10T03:30:01;18.70;99.90
12303;DHT22;6214;48.012;7.862;2023-06-10T03:32:29;18.70;99.90
12303;DHT22;6214;48.012;7.862;2023-06-10T03:34:56;18.90;99.90
12303;DHT22;6214;48.012;7.862;2023-06-10T03:37:24;19.00;99.90
12303;DHT22;6214;48.012;7.862;2023-06-10T03:39:52;18.80;99.90
12303;DHT22;6214;48.012;7.862;2023-06-10T03:42:19;18.60;99.90
12303;DHT22;6214;48.012;7.862;2023-06-10T03:44:46;18.70;99.90
12303;DHT22;6214;48.012;7.862;2023-06-10T03:47:13;18.70;99.90
12303;DHT22;6214;48.012;7.862;2023-06-10T03:49:40;18.70;99.90
12303;DHT22;6214;48.012;7.862;2023-06-10T03:52:07;18.80;99.90
12303;DHT22;6214;48.012;7.862;2023-06-10T03:54:34;18.60;99.90
12303;DHT22;6214;48.012;7.862;2023-06-10T03:57:01;18.60;99.90
12303;DHT22;6214;48.012;7.862;2023-06-10T03:59:29;18.60;99.90
12303;DHT22;6214;48.012;7.862;2023-06-10T04:01:56;18.60;99.90
12303;DHT22;6214;48.012;7.862;2023-06-10T04:04:23;18.60;99.90
12303;DHT22;6214;48.012;7.862;2023-06-10T04:06:50;18.60;99.90
12303;DHT22;6214;48.012;7.862;2023-06-10T04:09:17;18.60;99.90
12303;DHT22;6214;48.012;7.862;2023-06-10T04:11:44;18.50;99.90
12303;DHT22;6214;48.012;7.862;2023-06-10T04:14:11;18.60;99.90
12303;DHT22;6214;48.012;7.862;2023-06-10T04:16:39;18.60;99.90
12303;DHT22;6214;48.012;7.862;2023-06-10T04:19:07;18.50;99.90
12303;DHT22;6214;48.012;7.862;2023-06-10T04:21:34;18.50;99.90
12303;DHT22;6214;48.012;7.862;2023-06-10T04:24:02;18.50;99.90
12303;DHT22;6214;48.012;7.862;2023-06-10T04:26:29;18.60;99.90
12303;DHT22;6214;48.012;7.862;2023-06-10T04:28:56;18.60;99.90
12303;DHT22;6214;48.012;7.862;2023-06-10T04:31:23;18.70;99.90
12303;DHT22;6214;48.012;7.862;2023-06-10T04:33:50;18.80;99.90
12303;DHT22;6214;48.012;7.862;2023-06-10T04:36:17;18.90;99.90
12303;DHT22;6214;48.012;7.862;2023-06-10T04:38:44;18.80;99.90
12303;DHT22;6214;48.012;7.862;2023-06-10T04:41:11;18.80;99.90
12303;DHT22;6214;48.012;7.862;2023-06-10T04:43:38;18.80;99.90
12303;DHT22;6214;48.012;7.862;2023-06-10T04:46:05;18.90;99.90
12303;DHT22;6214;48.012;7.862;2023-06-10T04:48:34;18.90;99.90
12303;DHT22;6214;48.012;7.862;2023-06-10T04:51:02;18.90;99.90
12303;DHT22;6214;48.012;7.862;2023-06-10T04:53:29;18.90;99.90
12303;DHT22;6214;48.012;7.862;2023-06-10T04:55:56;19.00;99.90
12303;DHT22;6214;48.012;7.862;2023-06-10T04:58:24;19.10;99.90
12303;DHT22;6214;48.012;7.862;2023-06-10T05:00:51;19.10;99.90
12303;DHT22;6214;48.012;7.862;2023-06-10T05:03:18;19.00;99.90
12303;DHT22;6214;48.012;7.862;2023-06-10T05:05:45;19.10;99.90
12303;DHT22;6214;48.012;7.862;2023-06-10T05:08:12;19.00;99.90
12303;DHT22;6214;48.012;7.862;2023-06-10T05:10:39;19.10;99.90
12303;DHT22;6214;48.012;7.862;2023-06-10T05:13:06;19.10;99.90
12303;DHT22;6214;48.012;7.862;2023-06-10T05:15:33;19.20;99.90
12303;DHT22;6214;48.012;7.862;2023-06-10T05:18:00;19.30;99.90
12303;DHT22;6214;48.012;7.862;2023-06-10T05:20:29;19.40;99.90
12303;DHT22;6214;48.012;7.862;2023-06-10T05:22:56;19.50;99.90
12303;DHT22;6214;48.012;7.862;2023-06-10T05:25:24;19.50;99.90
12303;DHT22;6214;48.012;7.862;2023-06-10T05:27:51;19.70;99.90
12303;DHT22;6214;48.012;7.862;2023-06-10T05:30:18;20.00;99.90
12303;DHT22;6214;48.012;7.862;2023-06-10T05:32:45;20.10;99.90
12303;DHT22;6214;48.012;7.862;2023-06-10T05:35:12;20.20;99.90
12303;DHT22;6214;48.012;7.862;2023-06-10T05:37:39;20.30;99.90
12303;DHT22;6214;48.012;7.862;2023-06-10T05:40:07;20.50;99.90
12303;DHT22;6214;48.012;7.862;2023-06-10T05:42:34;20.60;99.90
12303;DHT22;6214;48.012;7.862;2023-06-10T05:45:01;20.80;99.90
12303;DHT22;6214;48.012;7.862;2023-06-10T05:47:29;21.00;99.90
12303;DHT22;6214;48.012;7.862;2023-06-10T05:49:56;21.20;99.90
12303;DHT22;6214;48.012;7.862;2023-06-10T05:52:22;21.30;99.90
12303;DHT22;6214;48.012;7.862;2023-06-10T05:54:50;21.60;99.90
12303;DHT22;6214;48.012;7.862;2023-06-10T05:57:17;21.80;99.90
12303;DHT22;6214;48.012;7.862;2023-06-10T05:59:44;22.00;99.90
12303;DHT22;6214;48.012;7.862;2023-06-10T06:02:11;22.20;99.90
12303;DHT22;6214;48.012;7.862;2023-06-10T06:04:38;22.30;99.90
12303;DHT22;6214;48.012;7.862;2023-06-10T06:07:05;22.60;99.90
12303;DHT22;6214;48.012;7.862;2023-06-10T06:09:32;22.70;99.90
12303;DHT22;6214;48.012;7.862;2023-06-10T06:11:59;23.00;99.90
12303;DHT22;6214;48.012;7.862;2023-06-10T06:14:26;23.30;99.90
12303;DHT22;6214;48.012;7.862;2023-06-10T06:16:53;23.40;99.90
12303;DHT22;6214;48.012;7.862;2023-06-10T06:19:20;23.30;99.90
12303;DHT22;6214;48.012;7.862;2023-06-10T06:21:47;23.50;99.90
12303;DHT22;6214;48.012;7.862;2023-06-10T06:24:15;23.70;99.90
12303;DHT22;6214;48.012;7.862;2023-06-10T06:26:42;24.00;99.90
12303;DHT22;6214;48.012;7.862;2023-06-10T06:29:09;24.20;99.90
12303;DHT22;6214;48.012;7.862;2023-06-10T06:31:36;24.20;99.90
12303;DHT22;6214;48.012;7.862;2023-06-10T06:34:03;24.40;99.90
12303;DHT22;6214;48.012;7.862;2023-06-10T06:36:30;24.70;99.90
12303;DHT22;6214;48.012;7.862;2023-06-10T06:38:57;25.10;99.90
12303;DHT22;6214;48.012;7.862;2023-06-10T06:41:28;25.30;99.90
12303;DHT22;6214;48.012;7.862;2023-06-10T06:43:55;25.70;99.90
12303;DHT22;6214;48.012;7.862;2023-06-10T06:46:22;26.00;99.90
12303;DHT22;6214;48.012;7.862;2023-06-10T06:48:49;26.00;99.90
12303;DHT22;6214;48.012;7.862;2023-06-10T06:51:16;26.10;99.90
12303;DHT22;6214;48.012;7.862;2023-06-10T06:53:43;26.30;99.90
12303;DHT22;6214;48.012;7.862;2023-06-10T06:56:13;26.40;99.90
12303;DHT22;6214;48.012;7.862;2023-06-10T06:58:40;26.80;99.90
12303;DHT22;6214;48.012;7.862;2023-06-10T07:01:08;26.70;99.90
12303;DHT22;6214;48.012;7.862;2023-06-10T07:03:35;26.90;99.90
12303;DHT22;6214;48.012;7.862;2023-06-10T07:06:02;27.50;99.90
12303;DHT22;6214;48.012;7.862;2023-06-10T07:08:29;27.90;99.90
12303;DHT22;6214;48.012;7.862;2023-06-10T07:10:56;28.60;99.90
12303;DHT22;6214;48.012;7.862;2023-06-10T07:13:23;28.80;99.90
12303;DHT22;6214;48.012;7.862;2023-06-10T07:15:50;29.20;99.90
12303;DHT22;6214;48.012;7.862;2023-06-10T07:18:17;30.30;99.90
12303;DHT22;6214;48.012;7.862;2023-06-10T07:20:44;31.00;99.90
12303;DHT22;6214;48.012;7.862;2023-06-10T07:23:11;33.80;99.50
12303;DHT22;6214;48.012;7.862;2023-06-10T07:25:38;35.80;92.80
12303;DHT22;6214;48.012;7.862;2023-06-10T07:28:05;37.40;86.00
12303;DHT22;6214;48.012;7.862;2023-06-10T07:30:32;38.80;78.10
12303;DHT22;6214;48.012;7.862;2023-06-10T07:32:59;39.80;70.80
12303;DHT22;6214;48.012;7.862;2023-06-10T07:35:26;39.90;63.90
12303;DHT22;6214;48.012;7.862;2023-06-10T07:37:53;39.20;63.40
12303;DHT22;6214;48.012;7.862;2023-06-10T07:40:20;40.20;63.20
12303;DHT22;6214;48.012;7.862;2023-06-10T07:42:46;40.70;61.60
12303;DHT22;6214;48.012;7.862;2023-06-10T07:45:13;40.70;57.50
12303;DHT22;6214;48.012;7.862;2023-06-10T07:47:41;40.90;57.50
12303;DHT22;6214;48.012;7.862;2023-06-10T07:50:08;41.40;57.10
12303;DHT22;6214;48.012;7.862;2023-06-10T07:52:35;41.50;55.90
12303;DHT22;6214;48.012;7.862;2023-06-10T07:55:03;42.50;55.80
12303;DHT22;6214;48.012;7.862;2023-06-10T07:57:31;42.70;53.00
12303;DHT22;6214;48.012;7.862;2023-06-10T08:00:02;42.90;53.00
12303;DHT22;6214;48.012;7.862;2023-06-10T08:02:31;43.20;51.80
12303;DHT22;6214;48.012;7.862;2023-06-10T08:04:58;43.70;50.60
12303;DHT22;6214;48.012;7.862;2023-06-10T08:07:25;44.00;50.10
12303;DHT22;6214;48.012;7.862;2023-06-10T08:09:52;43.80;48.90
12303;DHT22;6214;48.012;7.862;2023-06-10T08:12:19;43.60;49.60
12303;DHT22;6214;48.012;7.862;2023-06-10T08:14:47;43.90;49.20
12303;DHT22;6214;48.012;7.862;2023-06-10T08:17:14;42.50;48.50
12303;DHT22;6214;48.012;7.862;2023-06-10T08:19:41;41.60;49.70
12303;DHT22;6214;48.012;7.862;2023-06-10T08:22:07;42.60;50.20
12303;DHT22;6214;48.012;7.862;2023-06-10T08:24:34;43.70;48.50
12303;DHT22;6214;48.012;7.862;2023-06-10T08:27:01;44.00;48.20
12303;DHT22;6214;48.012;7.862;2023-06-10T08:29:28;44.80;47.70
12303;DHT22;6214;48.012;7.862;2023-06-10T08:31:58;45.40;46.80
12303;DHT22;6214;48.012;7.862;2023-06-10T08:34:25;45.30;46.60
12303;DHT22;6214;48.012;7.862;2023-06-10T08:36:52;45.00;46.00
12303;DHT22;6214;48.012;7.862;2023-06-10T08:39:22;44.00;46.20
12303;DHT22;6214;48.012;7.862;2023-06-10T08:44:57;43.30;47.00
12303;DHT22;6214;48.012;7.862;2023-06-10T08:47:29;42.50;47.00
12303;DHT22;6214;48.012;7.862;2023-06-10T08:50:03;42.80;48.90
12303;DHT22;6214;48.012;7.862;2023-06-10T08:52:37;43.00;47.60
12303;DHT22;6214;48.012;7.862;2023-06-10T08:55:32;43.10;47.40
12303;DHT22;6214;48.012;7.862;2023-06-10T08:58:00;43.20;48.50
12303;DHT22;6214;48.012;7.862;2023-06-10T09:00:29;42.50;48.40
12303;DHT22;6214;48.012;7.862;2023-06-10T09:02:57;42.20;49.80
12303;DHT22;6214;48.012;7.862;2023-06-10T09:05:28;41.50;49.30
12303;DHT22;6214;48.012;7.862;2023-06-10T09:07:57;41.30;49.60
12303;DHT22;6214;48.012;7.862;2023-06-10T09:10:24;40.30;51.20
12303;DHT22;6214;48.012;7.862;2023-06-10T09:12:52;41.00;51.00
12303;DHT22;6214;48.012;7.862;2023-06-10T09:15:19;40.70;51.30
12303;DHT22;6214;48.012;7.862;2023-06-10T09:17:47;39.80;51.90
12303;DHT22;6214;48.012;7.862;2023-06-10T09:20:14;39.50;52.40
12303;DHT22;6214;48.012;7.862;2023-06-10T09:22:42;39.10;53.10
12303;DHT22;6214;48.012;7.862;2023-06-10T09:25:11;39.40;53.20
12303;DHT22;6214;48.012;7.862;2023-06-10T09:27:46;39.40;53.50
12303;DHT22;6214;48.012;7.862;2023-06-10T09:30:35;40.30;54.00
12303;DHT22;6214;48.012;7.862;2023-06-10T09:33:10;40.30;51.70
12303;DHT22;6214;48.012;7.862;2023-06-10T09:35:45;40.70;52.70
12303;DHT22;6214;48.012;7.862;2023-06-10T09:38:14;39.40;51.90
12303;DHT22;6214;48.012;7.862;2023-06-10T09:40:54;38.50;53.40
12303;DHT22;6214;48.012;7.862;2023-06-10T09:43:21;38.70;53.80
12303;DHT22;6214;48.012;7.862;2023-06-10T09:45:51;39.80;53.20
12303;DHT22;6214;48.012;7.862;2023-06-10T09:48:22;39.80;52.80
12303;DHT22;6214;48.012;7.862;2023-06-10T09:50:50;40.80;53.60
12303;DHT22;6214;48.012;7.862;2023-06-10T09:53:17;40.50;52.60
12303;DHT22;6214;48.012;7.862;2023-06-10T09:55:45;39.70;52.00
12303;DHT22;6214;48.012;7.862;2023-06-10T09:58:12;39.50;53.60
12303;DHT22;6214;48.012;7.862;2023-06-10T10:00:38;39.40;52.50
12303;DHT22;6214;48.012;7.862;2023-06-10T10:03:05;39.20;52.60
12303;DHT22;6214;48.012;7.862;2023-06-10T10:05:33;38.20;52.80
12303;DHT22;6214;48.012;7.862;2023-06-10T10:08:00;38.20;53.50
12303;DHT22;6214;48.012;7.862;2023-06-10T10:10:27;37.70;54.90
12303;DHT22;6214;48.012;7.862;2023-06-10T10:12:55;37.80;55.40
12303;DHT22;6214;48.012;7.862;2023-06-10T10:15:30;37.20;56.90
12303;DHT22;6214;48.012;7.862;2023-06-10T10:18:09;36.70;57.90
12303;DHT22;6214;48.012;7.862;2023-06-10T10:20:45;35.80;57.00
12303;DHT22;6214;48.012;7.862;2023-06-10T10:23:14;34.10;58.20
12303;DHT22;6214;48.012;7.862;2023-06-10T10:25:49;33.00;61.20
12303;DHT22;6214;48.012;7.862;2023-06-10T10:28:20;32.70;64.40
12303;DHT22;6214;48.012;7.862;2023-06-10T10:30:54;32.10;65.20
12303;DHT22;6214;48.012;7.862;2023-06-10T10:33:33;31.90;68.00
12303;DHT22;6214;48.012;7.862;2023-06-10T10:36:03;31.90;69.60
12303;DHT22;6214;48.012;7.862;2023-06-10T10:38:31;31.80;69.00
12303;DHT22;6214;48.012;7.862;2023-06-10T10:40:59;31.90;69.40
12303;DHT22;6214;48.012;7.862;2023-06-10T10:43:30;31.50;70.60
12303;DHT22;6214;48.012;7.862;2023-06-10T10:45:59;31.50;70.90
12303;DHT22;6214;48.012;7.862;2023-06-10T10:48:27;31.50;71.90
12303;DHT22;6214;48.012;7.862;2023-06-10T10:51:00;31.10;71.40
12303;DHT22;6214;48.012;7.862;2023-06-10T10:53:27;30.80;72.60
12303;DHT22;6214;48.012;7.862;2023-06-10T10:58:31;31.20;75.40
12303;DHT22;6214;48.012;7.862;2023-06-10T11:01:14;31.20;75.60
12303;DHT22;6214;48.012;7.862;2023-06-10T11:03:44;31.00;74.80
12303;DHT22;6214;48.012;7.862;2023-06-10T11:06:15;31.10;79.60
12303;DHT22;6214;48.012;7.862;2023-06-10T11:11:24;31.30;76.80
12303;DHT22;6214;48.012;7.862;2023-06-10T11:16:29;30.80;75.50
12303;DHT22;6214;48.012;7.862;2023-06-10T11:18:56;30.30;76.90
12303;DHT22;6214;48.012;7.862;2023-06-10T11:21:24;30.30;78.70
12303;DHT22;6214;48.012;7.862;2023-06-10T11:23:58;30.40;79.80
12303;DHT22;6214;48.012;7.862;2023-06-10T11:33:58;29.60;85.70
12303;DHT22;6214;48.012;7.862;2023-06-10T11:36:27;29.60;84.50
12303;DHT22;6214;48.012;7.862;2023-06-10T11:39:04;29.60;86.70
12303;DHT22;6214;48.012;7.862;2023-06-10T11:41:33;29.60;90.40
12303;DHT22;6214;48.012;7.862;2023-06-10T11:44:08;29.70;90.00
12303;DHT22;6214;48.012;7.862;2023-06-10T11:46:35;29.30;88.20
12303;DHT22;6214;48.012;7.862;2023-06-10T11:49:04;29.40;91.10
12303;DHT22;6214;48.012;7.862;2023-06-10T11:51:39;29.50;90.10
12303;DHT22;6214;48.012;7.862;2023-06-10T11:54:10;29.80;90.30
12303;DHT22;6214;48.012;7.862;2023-06-10T11:56:37;30.30;90.40
12303;DHT22;6214;48.012;7.862;2023-06-10T11:59:06;30.40;89.00
12303;DHT22;6214;48.012;7.862;2023-06-10T12:01:42;30.00;85.50
12303;DHT22;6214;48.012;7.862;2023-06-10T12:04:15;30.10;89.10
12303;DHT22;6214;48.012;7.862;2023-06-10T12:06:47;30.10;88.50
12303;DHT22;6214;48.012;7.862;2023-06-10T12:12:02;31.00;88.40
12303;DHT22;6214;48.012;7.862;2023-06-10T12:15:05;31.10;86.50
12303;DHT22;6214;48.012;7.862;2023-06-10T12:20:05;30.60;85.60
12303;DHT22;6214;48.012;7.862;2023-06-10T12:22:40;30.30;87.00
12303;DHT22;6214;48.012;7.862;2023-06-10T12:25:08;30.20;84.90
12303;DHT22;6214;48.012;7.862;2023-06-10T12:27:38;30.00;84.30
12303;DHT22;6214;48.012;7.862;2023-06-10T12:30:06;29.70;85.50
12303;DHT22;6214;48.012;7.862;2023-06-10T12:32:40;29.60;83.70
12303;DHT22;6214;48.012;7.862;2023-06-10T12:35:09;29.40;86.50
12303;DHT22;6214;48.012;7.862;2023-06-10T12:37:37;29.30;85.20
12303;DHT22;6214;48.012;7.862;2023-06-10T12:40:09;29.40;85.40
12303;DHT22;6214;48.012;7.862;2023-06-10T12:42:37;29.50;88.00
12303;DHT22;6214;48.012;7.862;2023-06-10T12:45:05;29.60;88.80
12303;DHT22;6214;48.012;7.862;2023-06-10T12:47:36;29.60;91.50
12303;DHT22;6214;48.012;7.862;2023-06-10T12:50:05;29.70;95.20
12303;DHT22;6214;48.012;7.862;2023-06-10T12:52:33;29.60;97.20
12303;DHT22;6214;48.012;7.862;2023-06-10T12:55:00;29.30;98.20
12303;DHT22;6214;48.012;7.862;2023-06-10T12:57:27;29.10;99.90
12303;DHT22;6214;48.012;7.862;2023-06-10T12:59:54;28.50;99.90
12303;DHT22;6214;48.012;7.862;2023-06-10T13:02:27;28.10;99.90
12303;DHT22;6214;48.012;7.862;2023-06-10T13:04:54;28.00;99.90
12303;DHT22;6214;48.012;7.862;2023-06-10T13:07:21;27.80;99.90
12303;DHT22;6214;48.012;7.862;2023-06-10T13:09:49;27.80;99.90
12303;DHT22;6214;48.012;7.862;2023-06-10T13:12:16;27.90;99.90
12303;DHT22;6214;48.012;7.862;2023-06-10T13:14:56;27.90;99.90
12303;DHT22;6214;48.012;7.862;2023-06-10T13:17:23;27.90;99.90
12303;DHT22;6214;48.012;7.862;2023-06-10T13:19:50;27.70;99.90
12303;DHT22;6214;48.012;7.862;2023-06-10T13:22:17;27.30;99.90
12303;DHT22;6214;48.012;7.862;2023-06-10T13:24:46;26.90;99.90
12303;DHT22;6214;48.012;7.862;2023-06-10T13:27:13;26.30;99.90
12303;DHT22;6214;48.012;7.862;2023-06-10T13:29:43;26.00;99.90
12303;DHT22;6214;48.012;7.862;2023-06-10T13:32:09;25.80;99.90
12303;DHT22;6214;48.012;7.862;2023-06-10T13:34:36;25.80;99.90
12303;DHT22;6214;48.012;7.862;2023-06-10T13:37:04;25.70;99.90
12303;DHT22;6214;48.012;7.862;2023-06-10T13:39:31;25.70;99.90
12303;DHT22;6214;48.012;7.862;2023-06-10T13:41:59;25.80;99.90
12303;DHT22;6214;48.012;7.862;2023-06-10T13:44:26;26.00;99.90
12303;DHT22;6214;48.012;7.862;2023-06-10T13:46:52;26.10;99.90
12303;DHT22;6214;48.012;7.862;2023-06-10T13:49:20;26.20;99.90
12303;DHT22;6214;48.012;7.862;2023-06-10T13:51:47;26.50;99.90
12303;DHT22;6214;48.012;7.862;2023-06-10T13:54:14;26.60;99.90
12303;DHT22;6214;48.012;7.862;2023-06-10T13:56:42;26.70;99.90
12303;DHT22;6214;48.012;7.862;2023-06-10T13:59:09;26.90;99.90
12303;DHT22;6214;48.012;7.862;2023-06-10T14:01:36;27.10;99.90
12303;DHT22;6214;48.012;7.862;2023-06-10T14:04:04;27.40;99.90
12303;DHT22;6214;48.012;7.862;2023-06-10T14:06:31;27.70;99.90
12303;DHT22;6214;48.012;7.862;2023-06-10T14:08:59;28.10;99.90
12303;DHT22;6214;48.012;7.862;2023-06-10T14:11:26;28.30;99.90
12303;DHT22;6214;48.012;7.862;2023-06-10T14:13:53;28.30;99.90
12303;DHT22;6214;48.012;7.862;2023-06-10T14:16:23;28.50;99.90
12303;DHT22;6214;48.012;7.862;2023-06-10T14:18:50;28.60;99.90
12303;DHT22;6214;48.012;7.862;2023-06-10T14:21:17;28.60;99.90
12303;DHT22;6214;48.012;7.862;2023-06-10T14:23:44;28.30;99.90
12303;DHT22;6214;48.012;7.862;2023-06-10T14:26:12;28.00;99.90
12303;DHT22;6214;48.012;7.862;2023-06-10T14:28:39;27.70;99.90
12303;DHT22;6214;48.012;7.862;2023-06-10T14:31:06;27.30;99.90
12303;DHT22;6214;48.012;7.862;2023-06-10T14:33:34;26.70;99.90
12303;DHT22;6214;48.012;7.862;2023-06-10T14:36:01;26.20;99.90
12303;DHT22;6214;48.012;7.862;2023-06-10T14:38:28;25.80;99.90
12303;DHT22;6214;48.012;7.862;2023-06-10T14:40:55;25.60;99.90
12303;DHT22;6214;48.012;7.862;2023-06-10T14:43:22;25.50;99.90
12303;DHT22;6214;48.012;7.862;2023-06-10T14:45:49;25.40;99.90
12303;DHT22;6214;48.012;7.862;2023-06-10T14:48:17;25.30;99.90
12303;DHT22;6214;48.012;7.862;2023-06-10T14:50:44;25.30;99.90
12303;DHT22;6214;48.012;7.862;2023-06-10T14:53:18;25.30;99.90
12303;DHT22;6214;48.012;7.862;2023-06-10T14:55:45;25.50;99.90
12303;DHT22;6214;48.012;7.862;2023-06-10T14:58:12;25.80;99.90
12303;DHT22;6214;48.012;7.862;2023-06-10T15:00:38;26.30;99.90
12303;DHT22;6214;48.012;7.862;2023-06-10T15:03:05;26.90;99.90
12303;DHT22;6214;48.012;7.862;2023-06-10T15:05:32;27.20;99.90
12303;DHT22;6214;48.012;7.862;2023-06-10T15:08:01;27.40;99.90
12303;DHT22;6214;48.012;7.862;2023-06-10T15:10:28;27.60;99.90
12303;DHT22;6214;48.012;7.862;2023-06-10T15:12:55;27.70;99.90
12303;DHT22;6214;48.012;7.862;2023-06-10T15:15:23;27.70;99.90
12303;DHT22;6214;48.012;7.862;2023-06-10T15:17:51;27.70;99.90
12303;DHT22;6214;48.012;7.862;2023-06-10T15:20:18;27.60;99.90
12303;DHT22;6214;48.012;7.862;2023-06-10T15:22:45;27.50;99.90
12303;DHT22;6214;48.012;7.862;2023-06-10T15:25:12;27.40;99.90
12303;DHT22;6214;48.012;7.862;2023-06-10T15:27:41;27.20;99.90
12303;DHT22;6214;48.012;7.862;2023-06-10T15:30:09;26.80;99.90
12303;DHT22;6214;48.012;7.862;2023-06-10T15:32:36;26.50;99.90
12303;DHT22;6214;48.012;7.862;2023-06-10T15:35:03;26.30;99.90
12303;DHT22;6214;48.012;7.862;2023-06-10T15:37:30;26.20;99.90
12303;DHT22;6214;48.012;7.862;2023-06-10T15:39:59;26.10;99.90
12303;DHT22;6214;48.012;7.862;2023-06-10T15:42:26;26.00;99.90
12303;DHT22;6214;48.012;7.862;2023-06-10T15:44:53;26.00;99.90
12303;DHT22;6214;48.012;7.862;2023-06-10T15:47:20;26.00;99.90
12303;DHT22;6214;48.012;7.862;2023-06-10T15:49:47;26.00;99.90
12303;DHT22;6214;48.012;7.862;2023-06-10T15:52:14;26.00;99.90
12303;DHT22;6214;48.012;7.862;2023-06-10T15:54:41;26.00;99.90
12303;DHT22;6214;48.012;7.862;2023-06-10T15:57:08;26.00;99.90
12303;DHT22;6214;48.012;7.862;2023-06-10T15:59:35;26.00;99.90
12303;DHT22;6214;48.012;7.862;2023-06-10T16:02:02;26.00;99.90
12303;DHT22;6214;48.012;7.862;2023-06-10T16:04:30;26.20;99.90
12303;DHT22;6214;48.012;7.862;2023-06-10T16:06:57;26.50;99.90
12303;DHT22;6214;48.012;7.862;2023-06-10T16:09:24;26.80;99.90
12303;DHT22;6214;48.012;7.862;2023-06-10T16:11:51;27.00;99.90
12303;DHT22;6214;48.012;7.862;2023-06-10T16:14:18;27.30;99.90
12303;DHT22;6214;48.012;7.862;2023-06-10T16:16:45;27.50;99.90
12303;DHT22;6214;48.012;7.862;2023-06-10T16:19:12;27.60;99.90